sensor_id;sensor_type;location;lat;lon;timestamp;temperature;humidity
53802;DHT22;39709;53.334;6.534;2023-03-11T00:00:33;1.10;99.90
53802;DHT22;39709;53.334;6.534;2023-03-11T00:03:00;1.00;99.90
53802;DHT22;39709;53.334;6.534;2023-03-11T00:05:29;1.00;99.90
53802;DHT22;39709;53.334;6.534;2023-03-11T00:07:55;1.10;99.90
53802;DHT22;39709;53.334;6.534;2023-03-11T00:10:25;1.00;99.90
53802;DHT22;39709;53.334;6.534;2023-03-11T00:12:51;1.00;99.90
53802;DHT22;39709;53.334;6.534;2023-03-11T00:15:17;1.00;99.90
53802;DHT22;39709;53.334;6.534;2023-03-11T00:17:43;1.10;99.90
53802;DHT22;39709;53.334;6.534;2023-03-11T00:20:18;1.00;99.90
53802;DHT22;39709;53.334;6.534;2023-03-11T00:22:45;1.00;99.90
53802;DHT22;39709;53.334;6.534;2023-03-11T00:25:11;0.90;99.90
53802;DHT22;39709;53.334;6.534;2023-03-11T00:27:37;1.00;99.90
53802;DHT22;39709;53.334;6.534;2023-03-11T00:30:03;0.90;99.90
53802;DHT22;39709;53.334;6.534;2023-03-11T00:32:29;0.90;99.90
53802;DHT22;39709;53.334;6.534;2023-03-11T00:34:55;0.90;99.90
53802;DHT22;39709;53.334;6.534;2023-03-11T00:37:21;1.10;99.90
53802;DHT22;39709;53.334;6.534;2023-03-11T00:39:46;0.90;99.90
53802;DHT22;39709;53.334;6.534;2023-03-11T00:42:12;0.90;99.90
53802;DHT22;39709;53.334;6.534;2023-03-11T00:44:38;0.90;99.90
53802;DHT22;39709;53.334;6.534;2023-03-11T00:47:03;0.90;99.90
53802;DHT22;39709;53.334;6.534;2023-03-11T00:49:29;1.00;99.90
53802;DHT22;39709;53.334;6.534;2023-03-11T00:51:55;0.80;99.90
53802;DHT22;39709;53.334;6.534;2023-03-11T00:54:21;1.60;99.90
53802;DHT22;39709;53.334;6.534;2023-03-11T00:56:46;0.90;99.90
53802;DHT22;39709;53.334;6.534;2023-03-11T00:59:12;0.80;99.90
53802;DHT22;39709;53.334;6.534;2023-03-11T01:01:38;0.90;99.90
53802;DHT22;39709;53.334;6.534;2023-03-11T01:04:04;0.90;99.90
53802;DHT22;39709;53.334;6.534;2023-03-11T01:06:29;1.00;99.90
53802;DHT22;39709;53.334;6.534;2023-03-11T01:08:55;1.00;99.90
53802;DHT22;39709;53.334;6.534;2023-03-11T01:11:21;1.00;99.90
53802;DHT22;39709;53.334;6.534;2023-03-11T01:13:46;1.00;99.90
53802;DHT22;39709;53.334;6.534;2023-03-11T01:16:12;1.00;99.90
53802;DHT22;39709;53.334;6.534;2023-03-11T01:18:38;1.20;99.90
53802;DHT22;39709;53.334;6.534;2023-03-11T01:21:03;1.30;99.90
53802;DHT22;39709;53.334;6.534;2023-03-11T01:23:29;0.90;99.90
53802;DHT22;39709;53.334;6.534;2023-03-11T01:25:57;1.00;99.90
53802;DHT22;39709;53.334;6.534;2023-03-11T01:28:22;1.00;99.90
53802;DHT22;39709;53.334;6.534;2023-03-11T01:30:48;0.80;99.90
53802;DHT22;39709;53.334;6.534;2023-03-11T01:33:18;1.40;99.90
53802;DHT22;39709;53.334;6.534;2023-03-11T01:35:44;0.80;99.90
53802;DHT22;39709;53.334;6.534;2023-03-11T01:38:11;0.60;99.90
53802;DHT22;39709;53.334;6.534;2023-03-11T01:40:43;0.60;99.90
53802;DHT22;39709;53.334;6.534;2023-03-11T01:46:17;0.60;99.90
53802;DHT22;39709;53.334;6.534;2023-03-11T01:49:00;0.60;99.90
53802;DHT22;39709;53.334;6.534;2023-03-11T01:53:59;2.00;99.90
53802;DHT22;39709;53.334;6.534;2023-03-11T01:56:26;0.70;99.90
53802;DHT22;39709;53.334;6.534;2023-03-11T01:58:53;1.10;99.90
53802;DHT22;39709;53.334;6.534;2023-03-11T02:01:21;0.70;99.90
53802;DHT22;39709;53.334;6.534;2023-03-11T02:03:48;0.70;99.90
53802;DHT22;39709;53.334;6.534;2023-03-11T02:06:17;0.70;99.90
53802;DHT22;39709;53.334;6.534;2023-03-11T02:08:44;0.70;99.90
53802;DHT22;39709;53.334;6.534;2023-03-11T02:11:21;0.70;99.90
53802;DHT22;39709;53.334;6.534;2023-03-11T02:13:50;0.70;99.90
53802;DHT22;39709;53.334;6.534;2023-03-11T02:16:17;0.60;99.90
53802;DHT22;39709;53.334;6.534;2023-03-11T02:18:42;0.60;99.90
53802;DHT22;39709;53.334;6.534;2023-03-11T02:21:24;0.60;99.90
53802;DHT22;39709;53.334;6.534;2023-03-11T02:26:54;0.70;99.90
53802;DHT22;39709;53.334;6.534;2023-03-11T02:29:21;0.60;99.90
53802;DHT22;39709;53.334;6.534;2023-03-11T02:31:48;0.50;99.90
53802;DHT22;39709;53.334;6.534;2023-03-11T02:34:40;0.50;99.90
53802;DHT22;39709;53.334;6.534;2023-03-11T02:37:12;0.40;99.90
53802;DHT22;39709;53.334;6.534;2023-03-11T02:39:44;0.40;99.90
53802;DHT22;39709;53.334;6.534;2023-03-11T02:44:50;0.40;99.90
53802;DHT22;39709;53.334;6.534;2023-03-11T02:47:18;0.40;99.90
53802;DHT22;39709;53.334;6.534;2023-03-11T02:49:44;0.50;99.90
53802;DHT22;39709;53.334;6.534;2023-03-11T02:52:10;0.40;99.90
53802;DHT22;39709;53.334;6.534;2023-03-11T02:54:37;0.50;99.90
53802;DHT22;39709;53.334;6.534;2023-03-11T02:57:03;0.50;99.90
53802;DHT22;39709;53.334;6.534;2023-03-11T02:59:28;0.50;99.90
53802;DHT22;39709;53.334;6.534;2023-03-11T03:01:54;0.70;99.90
53802;DHT22;39709;53.334;6.534;2023-03-11T03:04:20;0.40;99.90
53802;DHT22;39709;53.334;6.534;2023-03-11T03:06:46;0.30;99.90
53802;DHT22;39709;53.334;6.534;2023-03-11T03:09:11;0.30;99.90
53802;DHT22;39709;53.334;6.534;2023-03-11T03:11:37;0.20;99.90
53802;DHT22;39709;53.334;6.534;2023-03-11T03:14:03;0.20;99.90
53802;DHT22;39709;53.334;6.534;2023-03-11T03:16:28;0.20;99.90
53802;DHT22;39709;53.334;6.534;2023-03-11T03:18:54;0.20;99.90
53802;DHT22;39709;53.334;6.534;2023-03-11T03:21:20;0.20;99.90
53802;DHT22;39709;53.334;6.534;2023-03-11T03:23:45;0.30;99.90
53802;DHT22;39709;53.334;6.534;2023-03-11T03:26:12;0.40;99.90
53802;DHT22;39709;53.334;6.534;2023-03-11T03:28:38;0.30;99.90
53802;DHT22;39709;53.334;6.534;2023-03-11T03:31:08;0.30;99.90
53802;DHT22;39709;53.334;6.534;2023-03-11T03:33:34;0.30;99.90
53802;DHT22;39709;53.334;6.534;2023-03-11T03:36:01;0.20;99.90
53802;DHT22;39709;53.334;6.534;2023-03-11T03:38:29;0.20;99.90
53802;DHT22;39709;53.334;6.534;2023-03-11T03:40:55;0.20;99.90
53802;DHT22;39709;53.334;6.534;2023-03-11T03:43:21;0.20;99.90
53802;DHT22;39709;53.334;6.534;2023-03-11T03:45:58;0.20;99.90
53802;DHT22;39709;53.334;6.534;2023-03-11T03:48:25;0.10;99.90
53802;DHT22;39709;53.334;6.534;2023-03-11T03:50:50;0.10;99.90
53802;DHT22;39709;53.334;6.534;2023-03-11T03:53:16;0.00;99.90
53802;DHT22;39709;53.334;6.534;2023-03-11T03:55:42;0.00;99.90
53802;DHT22;39709;53.334;6.534;2023-03-11T03:58:07;0.10;99.90
53802;DHT22;39709;53.334;6.534;2023-03-11T04:00:33;0.00;99.90
53802;DHT22;39709;53.334;6.534;2023-03-11T04:02:59;0.00;99.90
53802;DHT22;39709;53.334;6.534;2023-03-11T04:05:25;0.40;99.90
53802;DHT22;39709;53.334;6.534;2023-03-11T04:07:52;0.00;99.90
53802;DHT22;39709;53.334;6.534;2023-03-11T04:10:19;1.00;99.90
53802;DHT22;39709;53.334;6.534;2023-03-11T04:12:44;0.00;99.90
53802;DHT22;39709;53.334;6.534;2023-03-11T04:15:10;0.00;99.90
53802;DHT22;39709;53.334;6.534;2023-03-11T04:17:36;0.00;99.90
53802;DHT22;39709;53.334;6.534;2023-03-11T04:20:03;0.20;99.90
53802;DHT22;39709;53.334;6.534;2023-03-11T04:22:31;-0.20;99.90
53802;DHT22;39709;53.334;6.534;2023-03-11T04:24:57;-0.10;99.90
53802;DHT22;39709;53.334;6.534;2023-03-11T04:27:23;-0.10;99.90
53802;DHT22;39709;53.334;6.534;2023-03-11T04:29:48;0.20;1.00
53802;DHT22;39709;53.334;6.534;2023-03-11T04:32:14;-0.20;1.00
53802;DHT22;39709;53.334;6.534;2023-03-11T04:34:40;-0.10;1.00
53802;DHT22;39709;53.334;6.534;2023-03-11T04:37:06;-0.30;1.00
53802;DHT22;39709;53.334;6.534;2023-03-11T04:39:32;-0.20;1.00
53802;DHT22;39709;53.334;6.534;2023-03-11T04:41:58;-0.30;1.00
53802;DHT22;39709;53.334;6.534;2023-03-11T04:44:23;-0.40;1.00
53802;DHT22;39709;53.334;6.534;2023-03-11T04:46:49;-0.20;1.00
53802;DHT22;39709;53.334;6.534;2023-03-11T04:49:15;-0.40;1.00
53802;DHT22;39709;53.334;6.534;2023-03-11T04:51:41;-0.20;1.00
53802;DHT22;39709;53.334;6.534;2023-03-11T04:54:07;-0.40;1.00
53802;DHT22;39709;53.334;6.534;2023-03-11T04:56:33;-0.50;1.00
53802;DHT22;39709;53.334;6.534;2023-03-11T04:58:58;-0.30;1.00
53802;DHT22;39709;53.334;6.534;2023-03-11T05:01:24;-0.20;99.90
53802;DHT22;39709;53.334;6.534;2023-03-11T05:03:50;-0.10;99.90
53802;DHT22;39709;53.334;6.534;2023-03-11T05:06:15;-0.10;99.90
53802;DHT22;39709;53.334;6.534;2023-03-11T05:08:41;0.50;1.00
53802;DHT22;39709;53.334;6.534;2023-03-11T05:11:07;-0.40;1.00
53802;DHT22;39709;53.334;6.534;2023-03-11T05:13:33;0.10;1.00
53802;DHT22;39709;53.334;6.534;2023-03-11T05:15:59;-0.20;1.00
53802;DHT22;39709;53.334;6.534;2023-03-11T05:18:25;0.50;1.00
53802;DHT22;39709;53.334;6.534;2023-03-11T05:20:50;-0.30;1.00
53802;DHT22;39709;53.334;6.534;2023-03-11T05:23:17;-0.30;1.00
53802;DHT22;39709;53.334;6.534;2023-03-11T05:25:43;0.00;1.00
53802;DHT22;39709;53.334;6.534;2023-03-11T05:28:09;-0.20;1.00
53802;DHT22;39709;53.334;6.534;2023-03-11T05:30:35;0.20;1.00
53802;DHT22;39709;53.334;6.534;2023-03-11T05:33:00;-0.30;1.00
53802;DHT22;39709;53.334;6.534;2023-03-11T05:35:26;-0.50;1.00
53802;DHT22;39709;53.334;6.534;2023-03-11T05:37:52;-0.60;1.00
53802;DHT22;39709;53.334;6.534;2023-03-11T05:40:19;-0.80;1.00
53802;DHT22;39709;53.334;6.534;2023-03-11T05:42:45;-0.60;1.00
53802;DHT22;39709;53.334;6.534;2023-03-11T05:45:11;0.10;1.00
53802;DHT22;39709;53.334;6.534;2023-03-11T05:47:37;-0.60;1.00
53802;DHT22;39709;53.334;6.534;2023-03-11T05:50:04;-1.00;1.00
53802;DHT22;39709;53.334;6.534;2023-03-11T05:52:30;-0.80;1.00
53802;DHT22;39709;53.334;6.534;2023-03-11T05:54:57;-1.10;1.00
53802;DHT22;39709;53.334;6.534;2023-03-11T05:57:23;-0.40;1.00
53802;DHT22;39709;53.334;6.534;2023-03-11T05:59:48;-1.10;1.00
53802;DHT22;39709;53.334;6.534;2023-03-11T06:02:14;-1.00;1.00
53802;DHT22;39709;53.334;6.534;2023-03-11T06:04:40;-1.00;1.00
53802;DHT22;39709;53.334;6.534;2023-03-11T06:07:05;-1.20;1.00
53802;DHT22;39709;53.334;6.534;2023-03-11T06:09:31;-1.10;1.00
53802;DHT22;39709;53.334;6.534;2023-03-11T06:12:00;-1.50;1.00
53802;DHT22;39709;53.334;6.534;2023-03-11T06:14:25;-1.40;1.00
53802;DHT22;39709;53.334;6.534;2023-03-11T06:16:56;-1.20;1.00
53802;DHT22;39709;53.334;6.534;2023-03-11T06:19:22;-1.40;1.00
53802;DHT22;39709;53.334;6.534;2023-03-11T06:21:47;-1.30;1.00
53802;DHT22;39709;53.334;6.534;2023-03-11T06:24:13;-1.60;1.00
53802;DHT22;39709;53.334;6.534;2023-03-11T06:26:39;-1.60;1.00
53802;DHT22;39709;53.334;6.534;2023-03-11T06:29:08;-1.30;1.00
53802;DHT22;39709;53.334;6.534;2023-03-11T06:31:36;-1.40;1.00
53802;DHT22;39709;53.334;6.534;2023-03-11T06:34:04;-1.80;1.00
53802;DHT22;39709;53.334;6.534;2023-03-11T06:36:31;-1.30;1.00
53802;DHT22;39709;53.334;6.534;2023-03-11T06:38:57;-1.30;1.00
53802;DHT22;39709;53.334;6.534;2023-03-11T06:41:23;-1.30;1.00
53802;DHT22;39709;53.334;6.534;2023-03-11T06:43:49;-1.70;1.00
53802;DHT22;39709;53.334;6.534;2023-03-11T06:46:17;-1.70;1.00
53802;DHT22;39709;53.334;6.534;2023-03-11T06:48:44;-1.50;1.00
53802;DHT22;39709;53.334;6.534;2023-03-11T06:51:11;-1.50;1.00
53802;DHT22;39709;53.334;6.534;2023-03-11T06:53:37;-1.60;1.00
53802;DHT22;39709;53.334;6.534;2023-03-11T06:58:31;-1.40;1.00
53802;DHT22;39709;53.334;6.534;2023-03-11T07:01:02;-1.60;1.00
53802;DHT22;39709;53.334;6.534;2023-03-11T07:03:28;-1.50;1.00
53802;DHT22;39709;53.334;6.534;2023-03-11T07:05:54;-1.20;1.00
53802;DHT22;39709;53.334;6.534;2023-03-11T07:08:19;-1.30;1.00
53802;DHT22;39709;53.334;6.534;2023-03-11T07:10:45;-1.20;1.00
53802;DHT22;39709;53.334;6.534;2023-03-11T07:13:11;-1.00;1.00
53802;DHT22;39709;53.334;6.534;2023-03-11T07:15:37;-1.20;1.00
53802;DHT22;39709;53.334;6.534;2023-03-11T07:18:02;-1.20;1.00
53802;DHT22;39709;53.334;6.534;2023-03-11T07:20:28;-1.20;1.00
53802;DHT22;39709;53.334;6.534;2023-03-11T07:22:54;-0.80;1.00
53802;DHT22;39709;53.334;6.534;2023-03-11T07:25:19;-0.40;1.00
53802;DHT22;39709;53.334;6.534;2023-03-11T07:27:45;0.50;1.00
53802;DHT22;39709;53.334;6.534;2023-03-11T07:30:11;-1.00;1.00
53802;DHT22;39709;53.334;6.534;2023-03-11T07:32:37;-0.60;1.00
53802;DHT22;39709;53.334;6.534;2023-03-11T07:35:03;-0.60;1.00
53802;DHT22;39709;53.334;6.534;2023-03-11T07:37:28;-0.50;1.00
53802;DHT22;39709;53.334;6.534;2023-03-11T07:39:54;-0.60;1.00
53802;DHT22;39709;53.334;6.534;2023-03-11T07:42:20;-0.30;1.00
53802;DHT22;39709;53.334;6.534;2023-03-11T07:44:48;-0.80;1.00
53802;DHT22;39709;53.334;6.534;2023-03-11T07:47:14;-0.50;1.00
53802;DHT22;39709;53.334;6.534;2023-03-11T07:49:40;-0.60;1.00
53802;DHT22;39709;53.334;6.534;2023-03-11T07:52:06;-0.30;1.00
53802;DHT22;39709;53.334;6.534;2023-03-11T07:54:32;-0.40;1.00
53802;DHT22;39709;53.334;6.534;2023-03-11T07:56:57;-0.50;1.00
53802;DHT22;39709;53.334;6.534;2023-03-11T07:59:23;-0.10;1.00
53802;DHT22;39709;53.334;6.534;2023-03-11T08:01:50;-0.20;1.00
53802;DHT22;39709;53.334;6.534;2023-03-11T08:04:16;-0.30;1.00
53802;DHT22;39709;53.334;6.534;2023-03-11T08:06:44;-0.20;1.00
53802;DHT22;39709;53.334;6.534;2023-03-11T08:09:10;0.20;1.00
53802;DHT22;39709;53.334;6.534;2023-03-11T08:11:36;0.20;1.00
53802;DHT22;39709;53.334;6.534;2023-03-11T08:14:03;0.10;1.00
53802;DHT22;39709;53.334;6.534;2023-03-11T08:16:29;0.30;1.00
53802;DHT22;39709;53.334;6.534;2023-03-11T08:18:55;0.30;1.00
53802;DHT22;39709;53.334;6.534;2023-03-11T08:21:24;-0.10;1.00
53802;DHT22;39709;53.334;6.534;2023-03-11T08:23:50;0.40;1.00
53802;DHT22;39709;53.334;6.534;2023-03-11T08:26:18;0.30;1.00
53802;DHT22;39709;53.334;6.534;2023-03-11T08:28:45;0.20;1.00
53802;DHT22;39709;53.334;6.534;2023-03-11T08:31:20;0.20;1.00
53802;DHT22;39709;53.334;6.534;2023-03-11T08:33:48;0.20;1.00
53802;DHT22;39709;53.334;6.534;2023-03-11T08:36:15;0.40;1.00
53802;DHT22;39709;53.334;6.534;2023-03-11T08:38:41;0.50;1.00
53802;DHT22;39709;53.334;6.534;2023-03-11T08:41:06;0.40;1.00
53802;DHT22;39709;53.334;6.534;2023-03-11T08:43:32;0.50;1.00
53802;DHT22;39709;53.334;6.534;2023-03-11T08:46:02;1.00;1.00
53802;DHT22;39709;53.334;6.534;2023-03-11T08:48:28;0.60;1.00
53802;DHT22;39709;53.334;6.534;2023-03-11T08:50:54;0.90;1.00
53802;DHT22;39709;53.334;6.534;2023-03-11T08:53:24;0.90;1.00
53802;DHT22;39709;53.334;6.534;2023-03-11T08:55:50;0.80;1.00
53802;DHT22;39709;53.334;6.534;2023-03-11T08:58:16;1.10;1.00
53802;DHT22;39709;53.334;6.534;2023-03-11T09:00:42;1.00;1.00
53802;DHT22;39709;53.334;6.534;2023-03-11T09:03:08;0.80;1.00
53802;DHT22;39709;53.334;6.534;2023-03-11T09:05:35;1.20;1.00
53802;DHT22;39709;53.334;6.534;2023-03-11T09:08:01;1.00;1.00
53802;DHT22;39709;53.334;6.534;2023-03-11T09:10:27;1.30;1.00
53802;DHT22;39709;53.334;6.534;2023-03-11T09:12:52;1.50;1.00
53802;DHT22;39709;53.334;6.534;2023-03-11T09:15:18;1.10;1.00
53802;DHT22;39709;53.334;6.534;2023-03-11T09:17:44;1.10;1.00
53802;DHT22;39709;53.334;6.534;2023-03-11T09:20:13;1.20;1.00
53802;DHT22;39709;53.334;6.534;2023-03-11T09:22:39;1.60;1.00
53802;DHT22;39709;53.334;6.534;2023-03-11T09:25:06;1.20;1.00
53802;DHT22;39709;53.334;6.534;2023-03-11T09:27:31;1.20;1.00
53802;DHT22;39709;53.334;6.534;2023-03-11T09:29:57;1.40;1.00
53802;DHT22;39709;53.334;6.534;2023-03-11T09:32:23;1.80;1.00
53802;DHT22;39709;53.334;6.534;2023-03-11T09:34:48;1.60;1.00
53802;DHT22;39709;53.334;6.534;2023-03-11T09:37:14;1.80;1.00
53802;DHT22;39709;53.334;6.534;2023-03-11T09:39:40;1.50;1.00
53802;DHT22;39709;53.334;6.534;2023-03-11T09:42:28;1.90;1.00
53802;DHT22;39709;53.334;6.534;2023-03-11T09:50:54;2.30;1.00
53802;DHT22;39709;53.334;6.534;2023-03-11T09:53:58;2.20;1.00
53802;DHT22;39709;53.334;6.534;2023-03-11T09:56:26;2.50;1.00
53802;DHT22;39709;53.334;6.534;2023-03-11T09:58:55;2.40;1.00
53802;DHT22;39709;53.334;6.534;2023-03-11T10:01:26;2.20;1.00
53802;DHT22;39709;53.334;6.534;2023-03-11T10:04:04;2.60;1.00
53802;DHT22;39709;53.334;6.534;2023-03-11T10:06:32;2.30;1.00
53802;DHT22;39709;53.334;6.534;2023-03-11T10:12:00;2.60;1.00
53802;DHT22;39709;53.334;6.534;2023-03-11T10:25:19;2.90;1.00
53802;DHT22;39709;53.334;6.534;2023-03-11T10:28:23;3.00;1.00
53802;DHT22;39709;53.334;6.534;2023-03-11T10:30:50;2.80;1.00
53802;DHT22;39709;53.334;6.534;2023-03-11T10:33:40;3.10;1.00
53802;DHT22;39709;53.334;6.534;2023-03-11T10:36:12;3.10;1.00
53802;DHT22;39709;53.334;6.534;2023-03-11T10:38:46;3.20;1.00
53802;DHT22;39709;53.334;6.534;2023-03-11T10:41:35;3.20;1.00
53802;DHT22;39709;53.334;6.534;2023-03-11T10:44:10;3.30;1.00
53802;DHT22;39709;53.334;6.534;2023-03-11T10:46:37;3.10;1.00
53802;DHT22;39709;53.334;6.534;2023-03-11T10:49:07;3.10;1.00
53802;DHT22;39709;53.334;6.534;2023-03-11T10:51:36;3.40;1.00
53802;DHT22;39709;53.334;6.534;2023-03-11T10:54:03;3.40;1.00
53802;DHT22;39709;53.334;6.534;2023-03-11T10:56:40;3.50;1.00
53802;DHT22;39709;53.334;6.534;2023-03-11T10:59:25;3.40;1.00
53802;DHT22;39709;53.334;6.534;2023-03-11T11:01:58;3.30;1.00
53802;DHT22;39709;53.334;6.534;2023-03-11T11:04:34;3.60;1.00
53802;DHT22;39709;53.334;6.534;2023-03-11T11:07:28;3.60;1.00
53802;DHT22;39709;53.334;6.534;2023-03-11T11:10:23;3.50;1.00
53802;DHT22;39709;53.334;6.534;2023-03-11T11:12:59;3.30;1.00
53802;DHT22;39709;53.334;6.534;2023-03-11T11:18:27;3.70;1.00
53802;DHT22;39709;53.334;6.534;2023-03-11T11:21:16;3.80;1.00
53802;DHT22;39709;53.334;6.534;2023-03-11T11:26:29;4.00;1.00
53802;DHT22;39709;53.334;6.534;2023-03-11T11:31:38;4.20;1.00
53802;DHT22;39709;53.334;6.534;2023-03-11T11:34:27;4.40;1.00
53802;DHT22;39709;53.334;6.534;2023-03-11T11:36:56;4.20;1.00
53802;DHT22;39709;53.334;6.534;2023-03-11T11:39:25;4.20;1.00
53802;DHT22;39709;53.334;6.534;2023-03-11T11:41:52;4.20;1.00
53802;DHT22;39709;53.334;6.534;2023-03-11T11:44:20;4.50;1.00
53802;DHT22;39709;53.334;6.534;2023-03-11T11:46:55;4.40;1.00
53802;DHT22;39709;53.334;6.534;2023-03-11T11:49:28;4.40;1.00
53802;DHT22;39709;53.334;6.534;2023-03-11T11:57:14;4.60;23.60
53802;DHT22;39709;53.334;6.534;2023-03-11T11:59:40;4.50;1.00
53802;DHT22;39709;53.334;6.534;2023-03-11T12:02:18;4.60;38.50
53802;DHT22;39709;53.334;6.534;2023-03-11T12:04:55;4.70;42.40
53802;DHT22;39709;53.334;6.534;2023-03-11T12:10:23;4.80;38.60
53802;DHT22;39709;53.334;6.534;2023-03-11T12:16:02;4.80;29.30
53802;DHT22;39709;53.334;6.534;2023-03-11T12:27:52;4.80;1.00
53802;DHT22;39709;53.334;6.534;2023-03-11T12:30:30;5.00;1.00
53802;DHT22;39709;53.334;6.534;2023-03-11T12:35:35;5.20;22.10
53802;DHT22;39709;53.334;6.534;2023-03-11T12:41:03;5.20;1.00
53802;DHT22;39709;53.334;6.534;2023-03-11T12:46:08;5.30;1.00
53802;DHT22;39709;53.334;6.534;2023-03-11T12:51:01;5.40;1.00
53802;DHT22;39709;53.334;6.534;2023-03-11T12:53:48;5.50;44.00
53802;DHT22;39709;53.334;6.534;2023-03-11T12:59:31;5.70;46.50
53802;DHT22;39709;53.334;6.534;2023-03-11T13:12:47;5.90;3.20
53802;DHT22;39709;53.334;6.534;2023-03-11T13:18:03;5.80;1.00
53802;DHT22;39709;53.334;6.534;2023-03-11T13:34:34;5.80;32.40
53802;DHT22;39709;53.334;6.534;2023-03-11T13:42:35;5.90;93.80
53802;DHT22;39709;53.334;6.534;2023-03-11T13:45:02;5.80;46.90
53802;DHT22;39709;53.334;6.534;2023-03-11T13:47:32;5.70;1.00
53802;DHT22;39709;53.334;6.534;2023-03-11T13:50:22;5.70;50.30
53802;DHT22;39709;53.334;6.534;2023-03-11T13:52:51;5.90;91.40
53802;DHT22;39709;53.334;6.534;2023-03-11T13:55:22;6.00;64.60
53802;DHT22;39709;53.334;6.534;2023-03-11T13:57:52;6.10;67.20
53802;DHT22;39709;53.334;6.534;2023-03-11T14:00:20;6.00;1.00
53802;DHT22;39709;53.334;6.534;2023-03-11T14:03:02;6.00;1.00
53802;DHT22;39709;53.334;6.534;2023-03-11T14:05:31;6.10;24.60
53802;DHT22;39709;53.334;6.534;2023-03-11T14:08:19;6.00;1.00
53802;DHT22;39709;53.334;6.534;2023-03-11T14:11:15;5.90;1.00
53802;DHT22;39709;53.334;6.534;2023-03-11T14:13:45;6.10;1.00
53802;DHT22;39709;53.334;6.534;2023-03-11T14:16:23;6.10;1.00
53802;DHT22;39709;53.334;6.534;2023-03-11T14:19:15;6.10;1.00
53802;DHT22;39709;53.334;6.534;2023-03-11T14:21:42;6.20;1.00
53802;DHT22;39709;53.334;6.534;2023-03-11T14:24:16;6.20;59.70
53802;DHT22;39709;53.334;6.534;2023-03-11T14:26:42;6.30;85.20
53802;DHT22;39709;53.334;6.534;2023-03-11T14:29:11;6.10;57.40
53802;DHT22;39709;53.334;6.534;2023-03-11T14:31:41;6.10;81.30
53802;DHT22;39709;53.334;6.534;2023-03-11T14:36:44;5.70;44.90
53802;DHT22;39709;53.334;6.534;2023-03-11T14:39:32;5.40;1.00
53802;DHT22;39709;53.334;6.534;2023-03-11T14:42:11;5.10;99.90
53802;DHT22;39709;53.334;6.534;2023-03-11T14:45:28;5.20;1.00
53802;DHT22;39709;53.334;6.534;2023-03-11T14:47:45;5.10;1.00
53802;DHT22;39709;53.334;6.534;2023-03-11T14:50:17;5.00;99.90
53802;DHT22;39709;53.334;6.534;2023-03-11T14:52:50;5.00;99.90
53802;DHT22;39709;53.334;6.534;2023-03-11T14:55:38;5.10;1.00
53802;DHT22;39709;53.334;6.534;2023-03-11T14:58:30;5.20;1.00
53802;DHT22;39709;53.334;6.534;2023-03-11T15:01:01;5.50;84.30
53802;DHT22;39709;53.334;6.534;2023-03-11T15:03:31;5.30;37.60
53802;DHT22;39709;53.334;6.534;2023-03-11T15:06:16;5.40;97.20
53802;DHT22;39709;53.334;6.534;2023-03-11T15:08:55;5.60;99.90
53802;DHT22;39709;53.334;6.534;2023-03-11T15:11:24;5.10;99.90
53802;DHT22;39709;53.334;6.534;2023-03-11T15:13:51;5.40;99.90
53802;DHT22;39709;53.334;6.534;2023-03-11T15:16:30;5.00;99.90
53802;DHT22;39709;53.334;6.534;2023-03-11T15:18:59;4.80;99.90
53802;DHT22;39709;53.334;6.534;2023-03-11T15:21:26;4.60;99.90
53802;DHT22;39709;53.334;6.534;2023-03-11T15:24:03;4.50;99.90
53802;DHT22;39709;53.334;6.534;2023-03-11T15:26:34;4.60;99.90
53802;DHT22;39709;53.334;6.534;2023-03-11T15:29:14;4.40;99.90
53802;DHT22;39709;53.334;6.534;2023-03-11T15:31:42;4.10;99.90
53802;DHT22;39709;53.334;6.534;2023-03-11T15:41:44;4.60;1.00
53802;DHT22;39709;53.334;6.534;2023-03-11T15:44:30;4.50;17.50
53802;DHT22;39709;53.334;6.534;2023-03-11T15:46:57;4.70;1.00
53802;DHT22;39709;53.334;6.534;2023-03-11T15:49:27;4.60;1.00
53802;DHT22;39709;53.334;6.534;2023-03-11T15:51:57;4.60;1.00
53802;DHT22;39709;53.334;6.534;2023-03-11T15:54:23;4.70;1.00
53802;DHT22;39709;53.334;6.534;2023-03-11T15:56:49;5.00;32.30
53802;DHT22;39709;53.334;6.534;2023-03-11T15:59:16;5.00;20.30
53802;DHT22;39709;53.334;6.534;2023-03-11T16:01:42;4.70;1.00
53802;DHT22;39709;53.334;6.534;2023-03-11T16:04:15;4.80;1.00
53802;DHT22;39709;53.334;6.534;2023-03-11T16:06:42;4.80;1.00
53802;DHT22;39709;53.334;6.534;2023-03-11T16:09:08;4.90;1.00
53802;DHT22;39709;53.334;6.534;2023-03-11T16:11:34;4.60;1.00
53802;DHT22;39709;53.334;6.534;2023-03-11T16:14:00;4.40;1.00
53802;DHT22;39709;53.334;6.534;2023-03-11T16:16:26;4.40;1.00
53802;DHT22;39709;53.334;6.534;2023-03-11T16:18:52;4.60;1.00
53802;DHT22;39709;53.334;6.534;2023-03-11T16:21:21;4.40;1.00
53802;DHT22;39709;53.334;6.534;2023-03-11T16:23:49;4.30;1.00
53802;DHT22;39709;53.334;6.534;2023-03-11T16:26:15;4.30;1.00
53802;DHT22;39709;53.334;6.534;2023-03-11T16:28:41;4.30;1.00
53802;DHT22;39709;53.334;6.534;2023-03-11T16:31:07;4.30;1.00
53802;DHT22;39709;53.334;6.534;2023-03-11T16:33:37;4.40;1.00
53802;DHT22;39709;53.334;6.534;2023-03-11T16:36:03;4.50;1.00
53802;DHT22;39709;53.334;6.534;2023-03-11T16:38:30;4.50;15.40
53802;DHT22;39709;53.334;6.534;2023-03-11T16:40:59;4.60;3.20
53802;DHT22;39709;53.334;6.534;2023-03-11T16:43:26;4.50;1.00
53802;DHT22;39709;53.334;6.534;2023-03-11T16:45:51;4.50;1.00
53802;DHT22;39709;53.334;6.534;2023-03-11T16:48:22;4.50;1.00
53802;DHT22;39709;53.334;6.534;2023-03-11T16:50:48;4.10;1.00
53802;DHT22;39709;53.334;6.534;2023-03-11T16:53:14;4.10;1.00
53802;DHT22;39709;53.334;6.534;2023-03-11T16:55:44;4.20;1.00
53802;DHT22;39709;53.334;6.534;2023-03-11T16:58:12;4.40;1.00
53802;DHT22;39709;53.334;6.534;2023-03-11T17:00:37;4.20;1.00
53802;DHT22;39709;53.334;6.534;2023-03-11T17:03:05;4.20;1.00
53802;DHT22;39709;53.334;6.534;2023-03-11T17:05:31;4.40;1.00
53802;DHT22;39709;53.334;6.534;2023-03-11T17:07:57;4.00;1.00
53802;DHT22;39709;53.334;6.534;2023-03-11T17:10:29;4.20;1.00
53802;DHT22;39709;53.334;6.534;2023-03-11T17:12:59;4.20;1.00
53802;DHT22;39709;53.334;6.534;2023-03-11T17:15:25;3.90;1.00
53802;DHT22;39709;53.334;6.534;2023-03-11T17:17:50;3.70;1.00
53802;DHT22;39709;53.334;6.534;2023-03-11T17:20:16;3.70;1.00
53802;DHT22;39709;53.334;6.534;2023-03-11T17:22:42;3.50;1.00
53802;DHT22;39709;53.334;6.534;2023-03-11T17:25:08;3.40;1.00
53802;DHT22;39709;53.334;6.534;2023-03-11T17:27:34;3.50;1.00
53802;DHT22;39709;53.334;6.534;2023-03-11T17:30:02;3.30;1.00
53802;DHT22;39709;53.334;6.534;2023-03-11T17:32:28;3.30;1.00
53802;DHT22;39709;53.334;6.534;2023-03-11T17:34:54;2.90;1.00
53802;DHT22;39709;53.334;6.534;2023-03-11T17:37:21;3.00;1.00
53802;DHT22;39709;53.334;6.534;2023-03-11T17:39:46;2.90;1.00
53802;DHT22;39709;53.334;6.534;2023-03-11T17:42:12;2.50;1.00
53802;DHT22;39709;53.334;6.534;2023-03-11T17:44:38;2.60;1.00
53802;DHT22;39709;53.334;6.534;2023-03-11T17:47:04;2.70;6.10
53802;DHT22;39709;53.334;6.534;2023-03-11T17:49:29;2.60;7.40
53802;DHT22;39709;53.334;6.534;2023-03-11T17:51:55;2.30;8.80
53802;DHT22;39709;53.334;6.534;2023-03-11T17:54:21;2.40;16.50
53802;DHT22;39709;53.334;6.534;2023-03-11T17:56:47;2.10;20.50
53802;DHT22;39709;53.334;6.534;2023-03-11T17:59:13;1.90;19.60
53802;DHT22;39709;53.334;6.534;2023-03-11T18:01:38;2.30;24.30